Airfield :
LOGIN :

Register | Disclaimer

   EN    FR    IT 

 










Legend :    VFR   Marginal VFR   IFR   Intensive IFR   Very Intensive IFR
Visi :
Ceiling :
>= 8 km
>= 3000ft
5 to 8 km
1000 to 3000 ft
1500m to 5 km
500 to 1000 ft
800 to 1500m
200 to 500 ft
< 800m
< 200 ft
Symbols :   Thunderstorms  Fog  Heavy snow  Heavy precipitations  Wind > 20 kt
SIGMETs :     Misc.  Thunderstorms  Icing  Turbulence  Mountain Waves  Volcanic Ashes







- Airport Elevation : 2096 ft
- IATA code : AUR
- Download approach charts


LFLW - Aurillac

CURRENT METAR :
  • 231700Z AUTO 28006KT 230V300 9999 ///CB 20/12 Q1020 TEMPO 3000 -TSRA BECMG NSC

EXPIRED METARs :
  • 231630Z AUTO 28007KT 9999 FEW010/// SCT088/// BKN100/// ///TCU 19/12 Q1020 TEMPO 3000 -TSRA SCT030CB BKN050
  • 231600Z AUTO 29007KT 260V330 9999 -RA VCTS FEW039/// SCT052/// BKN080/// ///CB 19/12 Q1020 TEMPO 3000 -TSRA
  • 231530Z AUTO 31006KT 9999 BKN054/// BKN074/// OVC100/// ///CB 20/11 Q1020 TEMPO 3000 -TSRA
  • 231500Z AUTO 26007KT 230V290 CAVOK 22/10 Q1019 TEMPO 3000 -TSRA SCT030CB BKN050
  • 231430Z AUTO 31007KT 280V340 CAVOK 21/09 Q1020 TEMPO 3000 -TSRA SCT030CB BKN050

TAF AMD TAF LFLW
Valid from the 23 at 15:00 until the 24 at 00:00 UTC


231432Z 2315/2324 33008KT 9999 SCT050
PROB40
TEMPO 2315/2318 3000 -TSRA SCT030CB BKN050
BECMG 2318/2321 VRB03KT CAVOK
BECMG 2321/2324 3000 BR NSC
No reported NOTAMs for that airfield.
4 SIGMETs reported for the Bordeaux FIR (LFBB) :
 
Embedded thunderstorms
LFBB SIGMET 5 VALID 231700/231900 LFPW
LFBB BORDEAUX FIR/UIR EMBD TS OBS WI N4545 E00300 - N4400 E00245 - N4400 E00130 - N4545 E00245 TOP FL390 MOV E 25KT INTSF=
Embedded thunderstorms
LFBB SIGMET 4 VALID 231540/231700 LFPW
LFBB BORDEAUX FIR/UIR EMBD TS OBS WI N4415 E00145 - N4500 E00200 - N4500 E00230 - N4415 E00215 - N4415 E00145 TOP FL390 MOV E 15KT NC=
SIGMET 2  cancelation
LFBB SIGMET 3 VALID 231545/231700 LFPW
LFBB BORDEAUX FIR/UIR CNL SIGMET 2 231520/231700=
SIGMET 2  CANCELED :
Embedded thunderstorms
LFBB SIGMET 2 VALID 231520/231700 LFPW
LFBB BORDEAUX FIR/UIR EMBD TS OBS WI N4415 E00145 - N4515 E00145 - N4515 E00215 - N4415 E00215 - N4415 E00145 TOP FL350 MOV E 15KT NC=



MET'MAP, your aeronautical weather chart ! - Copyright ORBIFLY December 2007 - Disclaimer

ORBIFLY MET'MAP TEAM :

Programming & Development : Alexandra Zaïnal
Concept & Development : Baudouin d'Aumeries
Co-Development & Prog : Marc-Olivier Méhu
Technical & hardware support : Manuel Goepfert

Contact : metmap@orbifly.com




SOURCES & CREDITS :

   NOAA